sensor_id;sensor_type;location;lat;lon;timestamp;temperature;humidity
67529;DHT22;54366;51.980;5.856;2024-01-30T00:00:05;7.50;83.40
67529;DHT22;54366;51.980;5.856;2024-01-30T00:02:32;7.50;83.40
67529;DHT22;54366;51.980;5.856;2024-01-30T00:04:58;7.50;83.50
67529;DHT22;54366;51.980;5.856;2024-01-30T00:07:25;7.50;83.40
67529;DHT22;54366;51.980;5.856;2024-01-30T00:09:51;7.50;83.50
67529;DHT22;54366;51.980;5.856;2024-01-30T00:12:17;7.50;83.50
67529;DHT22;54366;51.980;5.856;2024-01-30T00:14:43;7.40;83.40
67529;DHT22;54366;51.980;5.856;2024-01-30T00:17:10;7.50;83.60
67529;DHT22;54366;51.980;5.856;2024-01-30T00:19:36;7.40;83.50
67529;DHT22;54366;51.980;5.856;2024-01-30T00:22:03;7.40;83.50
67529;DHT22;54366;51.980;5.856;2024-01-30T00:24:29;7.40;83.50
67529;DHT22;54366;51.980;5.856;2024-01-30T00:26:55;7.30;83.40
67529;DHT22;54366;51.980;5.856;2024-01-30T00:29:22;7.30;83.30
67529;DHT22;54366;51.980;5.856;2024-01-30T00:31:49;7.30;83.30
67529;DHT22;54366;51.980;5.856;2024-01-30T00:34:15;7.30;83.40
67529;DHT22;54366;51.980;5.856;2024-01-30T00:36:41;7.20;83.20
67529;DHT22;54366;51.980;5.856;2024-01-30T00:39:07;7.20;83.30
67529;DHT22;54366;51.980;5.856;2024-01-30T00:41:35;7.20;83.30
67529;DHT22;54366;51.980;5.856;2024-01-30T00:44:01;7.20;83.40
67529;DHT22;54366;51.980;5.856;2024-01-30T00:46:27;7.10;83.30
67529;DHT22;54366;51.980;5.856;2024-01-30T00:48:54;7.10;83.40
67529;DHT22;54366;51.980;5.856;2024-01-30T00:51:20;7.10;83.40
67529;DHT22;54366;51.980;5.856;2024-01-30T00:53:46;7.10;83.40
67529;DHT22;54366;51.980;5.856;2024-01-30T00:56:12;7.10;83.20
67529;DHT22;54366;51.980;5.856;2024-01-30T00:58:39;7.00;83.20
67529;DHT22;54366;51.980;5.856;2024-01-30T01:01:06;7.00;83.30
67529;DHT22;54366;51.980;5.856;2024-01-30T01:03:33;7.00;83.20
67529;DHT22;54366;51.980;5.856;2024-01-30T01:05:59;7.00;83.30
67529;DHT22;54366;51.980;5.856;2024-01-30T01:08:26;7.00;83.30
67529;DHT22;54366;51.980;5.856;2024-01-30T01:10:52;7.00;83.40
67529;DHT22;54366;51.980;5.856;2024-01-30T01:13:19;6.90;83.20
67529;DHT22;54366;51.980;5.856;2024-01-30T01:15:45;7.00;83.30
67529;DHT22;54366;51.980;5.856;2024-01-30T01:18:11;6.90;83.20
67529;DHT22;54366;51.980;5.856;2024-01-30T01:20:38;6.90;83.30
67529;DHT22;54366;51.980;5.856;2024-01-30T01:23:04;6.90;83.30
67529;DHT22;54366;51.980;5.856;2024-01-30T01:25:30;6.90;83.30
67529;DHT22;54366;51.980;5.856;2024-01-30T01:27:56;6.80;83.20
67529;DHT22;54366;51.980;5.856;2024-01-30T01:30:23;6.90;83.30
67529;DHT22;54366;51.980;5.856;2024-01-30T01:32:49;6.90;83.20
67529;DHT22;54366;51.980;5.856;2024-01-30T01:35:23;6.80;83.20
67529;DHT22;54366;51.980;5.856;2024-01-30T01:37:53;6.90;83.30
67529;DHT22;54366;51.980;5.856;2024-01-30T01:40:24;6.80;83.40
67529;DHT22;54366;51.980;5.856;2024-01-30T01:42:51;6.80;83.40
67529;DHT22;54366;51.980;5.856;2024-01-30T01:45:20;6.70;83.40
67529;DHT22;54366;51.980;5.856;2024-01-30T01:47:51;6.70;83.40
67529;DHT22;54366;51.980;5.856;2024-01-30T01:50:18;6.70;83.40
67529;DHT22;54366;51.980;5.856;2024-01-30T01:52:49;6.70;83.40
67529;DHT22;54366;51.980;5.856;2024-01-30T01:55:16;6.70;83.40
67529;DHT22;54366;51.980;5.856;2024-01-30T01:57:48;6.80;83.60
67529;DHT22;54366;51.980;5.856;2024-01-30T02:00:14;6.80;83.50
67529;DHT22;54366;51.980;5.856;2024-01-30T02:02:43;6.80;83.50
67529;DHT22;54366;51.980;5.856;2024-01-30T02:05:11;6.70;83.40
67529;DHT22;54366;51.980;5.856;2024-01-30T02:07:37;6.70;83.30
67529;DHT22;54366;51.980;5.856;2024-01-30T02:10:04;6.80;83.90
67529;DHT22;54366;51.980;5.856;2024-01-30T02:12:31;6.70;83.40
67529;DHT22;54366;51.980;5.856;2024-01-30T02:14:57;6.80;83.50
67529;DHT22;54366;51.980;5.856;2024-01-30T02:17:24;6.70;83.40
67529;DHT22;54366;51.980;5.856;2024-01-30T02:19:50;6.70;83.40
67529;DHT22;54366;51.980;5.856;2024-01-30T02:22:16;6.70;83.40
67529;DHT22;54366;51.980;5.856;2024-01-30T02:24:43;6.70;83.40
67529;DHT22;54366;51.980;5.856;2024-01-30T02:27:09;6.80;83.50
67529;DHT22;54366;51.980;5.856;2024-01-30T02:29:35;6.80;83.50
67529;DHT22;54366;51.980;5.856;2024-01-30T02:32:01;6.80;83.40
67529;DHT22;54366;51.980;5.856;2024-01-30T02:34:28;6.70;83.50
67529;DHT22;54366;51.980;5.856;2024-01-30T02:36:54;6.70;83.60
67529;DHT22;54366;51.980;5.856;2024-01-30T02:39:20;6.80;83.70
67529;DHT22;54366;51.980;5.856;2024-01-30T02:41:47;6.70;83.70
67529;DHT22;54366;51.980;5.856;2024-01-30T02:44:13;6.70;83.70
67529;DHT22;54366;51.980;5.856;2024-01-30T02:46:39;6.70;83.90
67529;DHT22;54366;51.980;5.856;2024-01-30T02:49:05;6.70;83.80
67529;DHT22;54366;51.980;5.856;2024-01-30T02:51:32;6.70;83.70
67529;DHT22;54366;51.980;5.856;2024-01-30T02:53:58;6.70;83.70
67529;DHT22;54366;51.980;5.856;2024-01-30T02:56:24;6.70;83.70
67529;DHT22;54366;51.980;5.856;2024-01-30T02:58:51;6.70;83.80
67529;DHT22;54366;51.980;5.856;2024-01-30T03:01:17;6.70;83.80
67529;DHT22;54366;51.980;5.856;2024-01-30T03:03:44;6.70;83.80
67529;DHT22;54366;51.980;5.856;2024-01-30T03:06:10;6.70;84.10
67529;DHT22;54366;51.980;5.856;2024-01-30T03:08:36;6.70;84.10
67529;DHT22;54366;51.980;5.856;2024-01-30T03:11:03;6.60;84.20
67529;DHT22;54366;51.980;5.856;2024-01-30T03:13:29;6.60;84.10
67529;DHT22;54366;51.980;5.856;2024-01-30T03:15:56;6.60;84.20
67529;DHT22;54366;51.980;5.856;2024-01-30T03:18:23;6.60;84.10
67529;DHT22;54366;51.980;5.856;2024-01-30T03:20:49;6.60;84.10
67529;DHT22;54366;51.980;5.856;2024-01-30T03:23:15;6.50;84.10
67529;DHT22;54366;51.980;5.856;2024-01-30T03:25:41;6.50;84.10
67529;DHT22;54366;51.980;5.856;2024-01-30T03:28:08;6.50;84.00
67529;DHT22;54366;51.980;5.856;2024-01-30T03:30:34;6.50;84.00
67529;DHT22;54366;51.980;5.856;2024-01-30T03:33:01;6.50;84.00
67529;DHT22;54366;51.980;5.856;2024-01-30T03:35:27;6.50;84.00
67529;DHT22;54366;51.980;5.856;2024-01-30T03:37:53;6.50;84.00
67529;DHT22;54366;51.980;5.856;2024-01-30T03:40:20;6.50;83.90
67529;DHT22;54366;51.980;5.856;2024-01-30T03:42:46;6.50;84.00
67529;DHT22;54366;51.980;5.856;2024-01-30T03:45:12;6.50;83.90
67529;DHT22;54366;51.980;5.856;2024-01-30T03:47:39;6.50;84.00
67529;DHT22;54366;51.980;5.856;2024-01-30T03:50:05;6.50;84.00
67529;DHT22;54366;51.980;5.856;2024-01-30T03:52:31;6.50;84.50
67529;DHT22;54366;51.980;5.856;2024-01-30T03:54:58;6.50;84.10
67529;DHT22;54366;51.980;5.856;2024-01-30T03:57:24;6.50;84.10
67529;DHT22;54366;51.980;5.856;2024-01-30T03:59:50;6.50;84.10
67529;DHT22;54366;51.980;5.856;2024-01-30T04:02:17;6.60;84.10
67529;DHT22;54366;51.980;5.856;2024-01-30T04:04:44;6.50;84.10
67529;DHT22;54366;51.980;5.856;2024-01-30T04:07:10;6.50;84.10
67529;DHT22;54366;51.980;5.856;2024-01-30T04:09:38;6.50;84.00
67529;DHT22;54366;51.980;5.856;2024-01-30T04:12:04;6.50;84.00
67529;DHT22;54366;51.980;5.856;2024-01-30T04:14:31;6.50;84.10
67529;DHT22;54366;51.980;5.856;2024-01-30T04:16:57;6.40;83.90
67529;DHT22;54366;51.980;5.856;2024-01-30T04:19:24;6.50;83.90
67529;DHT22;54366;51.980;5.856;2024-01-30T04:21:50;6.40;84.10
67529;DHT22;54366;51.980;5.856;2024-01-30T04:24:16;6.50;84.10
67529;DHT22;54366;51.980;5.856;2024-01-30T04:26:44;6.50;84.20
67529;DHT22;54366;51.980;5.856;2024-01-30T04:29:10;6.50;84.10
67529;DHT22;54366;51.980;5.856;2024-01-30T04:31:37;6.50;84.10
67529;DHT22;54366;51.980;5.856;2024-01-30T04:34:03;6.50;84.20
67529;DHT22;54366;51.980;5.856;2024-01-30T04:36:29;6.50;84.20
67529;DHT22;54366;51.980;5.856;2024-01-30T04:38:56;6.50;84.10
67529;DHT22;54366;51.980;5.856;2024-01-30T04:41:22;6.50;84.10
67529;DHT22;54366;51.980;5.856;2024-01-30T04:43:49;6.50;84.10
67529;DHT22;54366;51.980;5.856;2024-01-30T04:46:15;6.50;84.10
67529;DHT22;54366;51.980;5.856;2024-01-30T04:48:41;6.50;84.10
67529;DHT22;54366;51.980;5.856;2024-01-30T04:51:08;6.60;84.10
67529;DHT22;54366;51.980;5.856;2024-01-30T04:53:34;6.50;84.10
67529;DHT22;54366;51.980;5.856;2024-01-30T04:56:00;6.50;84.20
67529;DHT22;54366;51.980;5.856;2024-01-30T04:58:26;6.50;84.10
67529;DHT22;54366;51.980;5.856;2024-01-30T05:00:53;6.60;84.10
67529;DHT22;54366;51.980;5.856;2024-01-30T05:03:19;6.60;84.00
67529;DHT22;54366;51.980;5.856;2024-01-30T05:05:46;6.60;84.00
67529;DHT22;54366;51.980;5.856;2024-01-30T05:08:12;6.60;84.00
67529;DHT22;54366;51.980;5.856;2024-01-30T05:10:38;6.60;84.00
67529;DHT22;54366;51.980;5.856;2024-01-30T05:13:05;6.60;84.00
67529;DHT22;54366;51.980;5.856;2024-01-30T05:15:31;6.60;84.00
67529;DHT22;54366;51.980;5.856;2024-01-30T05:17:57;6.60;84.00
67529;DHT22;54366;51.980;5.856;2024-01-30T05:20:24;6.70;84.00
67529;DHT22;54366;51.980;5.856;2024-01-30T05:22:50;6.70;84.10
67529;DHT22;54366;51.980;5.856;2024-01-30T05:25:16;6.70;84.10
67529;DHT22;54366;51.980;5.856;2024-01-30T05:27:42;6.70;84.10
67529;DHT22;54366;51.980;5.856;2024-01-30T05:30:09;6.70;84.00
67529;DHT22;54366;51.980;5.856;2024-01-30T05:32:36;6.80;84.10
67529;DHT22;54366;51.980;5.856;2024-01-30T05:35:02;6.80;84.10
67529;DHT22;54366;51.980;5.856;2024-01-30T05:37:29;6.70;84.10
67529;DHT22;54366;51.980;5.856;2024-01-30T05:39:55;6.80;84.30
67529;DHT22;54366;51.980;5.856;2024-01-30T05:42:21;6.80;84.40
67529;DHT22;54366;51.980;5.856;2024-01-30T05:44:48;6.90;84.40
67529;DHT22;54366;51.980;5.856;2024-01-30T05:47:14;6.80;84.40
67529;DHT22;54366;51.980;5.856;2024-01-30T05:49:41;6.90;84.40
67529;DHT22;54366;51.980;5.856;2024-01-30T05:52:08;6.80;84.50
67529;DHT22;54366;51.980;5.856;2024-01-30T05:54:34;6.90;84.50
67529;DHT22;54366;51.980;5.856;2024-01-30T05:57:00;6.90;84.50
67529;DHT22;54366;51.980;5.856;2024-01-30T05:59:26;7.00;84.50
67529;DHT22;54366;51.980;5.856;2024-01-30T06:01:53;7.00;84.50
67529;DHT22;54366;51.980;5.856;2024-01-30T06:04:19;7.00;84.50
67529;DHT22;54366;51.980;5.856;2024-01-30T06:06:46;7.00;84.50
67529;DHT22;54366;51.980;5.856;2024-01-30T06:09:12;7.10;84.80
67529;DHT22;54366;51.980;5.856;2024-01-30T06:11:38;7.10;84.60
67529;DHT22;54366;51.980;5.856;2024-01-30T06:14:05;7.10;84.60
67529;DHT22;54366;51.980;5.856;2024-01-30T06:16:31;7.10;84.70
67529;DHT22;54366;51.980;5.856;2024-01-30T06:18:57;7.20;85.00
67529;DHT22;54366;51.980;5.856;2024-01-30T06:21:25;7.30;84.90
67529;DHT22;54366;51.980;5.856;2024-01-30T06:23:51;7.30;84.80
67529;DHT22;54366;51.980;5.856;2024-01-30T06:26:17;7.30;84.70
67529;DHT22;54366;51.980;5.856;2024-01-30T06:28:44;7.30;84.70
67529;DHT22;54366;51.980;5.856;2024-01-30T06:31:10;7.40;84.70
67529;DHT22;54366;51.980;5.856;2024-01-30T06:33:36;7.40;84.70
67529;DHT22;54366;51.980;5.856;2024-01-30T06:36:03;7.40;84.70
67529;DHT22;54366;51.980;5.856;2024-01-30T06:38:29;7.40;84.80
67529;DHT22;54366;51.980;5.856;2024-01-30T06:40:55;7.40;84.80
67529;DHT22;54366;51.980;5.856;2024-01-30T06:43:22;7.40;84.80
67529;DHT22;54366;51.980;5.856;2024-01-30T06:45:48;7.40;84.80
67529;DHT22;54366;51.980;5.856;2024-01-30T06:48:15;7.50;84.80
67529;DHT22;54366;51.980;5.856;2024-01-30T06:50:41;7.50;84.90
67529;DHT22;54366;51.980;5.856;2024-01-30T06:53:07;7.60;84.90
67529;DHT22;54366;51.980;5.856;2024-01-30T06:55:33;7.60;84.90
67529;DHT22;54366;51.980;5.856;2024-01-30T07:00:26;7.70;84.90
67529;DHT22;54366;51.980;5.856;2024-01-30T07:02:52;7.70;84.80
67529;DHT22;54366;51.980;5.856;2024-01-30T07:05:19;7.70;84.80
67529;DHT22;54366;51.980;5.856;2024-01-30T07:07:45;7.70;84.90
67529;DHT22;54366;51.980;5.856;2024-01-30T07:10:11;7.70;85.00
67529;DHT22;54366;51.980;5.856;2024-01-30T07:12:38;7.70;85.10
67529;DHT22;54366;51.980;5.856;2024-01-30T07:15:05;7.80;85.30
67529;DHT22;54366;51.980;5.856;2024-01-30T07:17:35;7.70;85.30
67529;DHT22;54366;51.980;5.856;2024-01-30T07:20:01;7.70;85.30
67529;DHT22;54366;51.980;5.856;2024-01-30T07:22:30;7.80;85.30
67529;DHT22;54366;51.980;5.856;2024-01-30T07:24:56;7.80;85.30
67529;DHT22;54366;51.980;5.856;2024-01-30T07:27:23;7.80;85.30
67529;DHT22;54366;51.980;5.856;2024-01-30T07:29:49;7.90;85.30
67529;DHT22;54366;51.980;5.856;2024-01-30T07:32:15;7.90;85.20
67529;DHT22;54366;51.980;5.856;2024-01-30T07:34:41;7.90;85.20
67529;DHT22;54366;51.980;5.856;2024-01-30T07:37:08;8.00;85.20
67529;DHT22;54366;51.980;5.856;2024-01-30T07:39:34;8.00;85.10
67529;DHT22;54366;51.980;5.856;2024-01-30T07:42:01;8.00;85.10
67529;DHT22;54366;51.980;5.856;2024-01-30T07:44:27;8.10;85.20
67529;DHT22;54366;51.980;5.856;2024-01-30T07:46:53;8.10;85.10
67529;DHT22;54366;51.980;5.856;2024-01-30T07:49:20;8.20;85.10
67529;DHT22;54366;51.980;5.856;2024-01-30T07:51:47;8.10;85.00
67529;DHT22;54366;51.980;5.856;2024-01-30T07:54:13;8.20;85.20
67529;DHT22;54366;51.980;5.856;2024-01-30T07:56:43;8.20;85.10
67529;DHT22;54366;51.980;5.856;2024-01-30T07:59:12;8.20;85.10
67529;DHT22;54366;51.980;5.856;2024-01-30T08:01:38;8.20;85.10
67529;DHT22;54366;51.980;5.856;2024-01-30T08:04:05;8.30;85.10
67529;DHT22;54366;51.980;5.856;2024-01-30T08:06:31;8.30;85.00
67529;DHT22;54366;51.980;5.856;2024-01-30T08:08:57;8.30;85.10
67529;DHT22;54366;51.980;5.856;2024-01-30T08:11:25;8.40;85.10
67529;DHT22;54366;51.980;5.856;2024-01-30T08:13:55;8.40;85.10
67529;DHT22;54366;51.980;5.856;2024-01-30T08:16:21;8.40;85.10
67529;DHT22;54366;51.980;5.856;2024-01-30T08:18:48;8.50;85.10
67529;DHT22;54366;51.980;5.856;2024-01-30T08:21:14;8.50;85.00
67529;DHT22;54366;51.980;5.856;2024-01-30T08:23:40;8.50;85.10
67529;DHT22;54366;51.980;5.856;2024-01-30T08:26:07;8.60;85.00
67529;DHT22;54366;51.980;5.856;2024-01-30T08:28:33;8.60;85.00
67529;DHT22;54366;51.980;5.856;2024-01-30T08:30:59;8.70;85.00
67529;DHT22;54366;51.980;5.856;2024-01-30T08:33:26;8.70;84.90
67529;DHT22;54366;51.980;5.856;2024-01-30T08:35:55;8.70;84.90
67529;DHT22;54366;51.980;5.856;2024-01-30T08:38:21;8.80;84.90
67529;DHT22;54366;51.980;5.856;2024-01-30T08:40:48;8.80;84.90
67529;DHT22;54366;51.980;5.856;2024-01-30T08:43:14;8.90;85.00
67529;DHT22;54366;51.980;5.856;2024-01-30T08:45:42;8.90;85.00
67529;DHT22;54366;51.980;5.856;2024-01-30T08:48:08;8.90;85.00
67529;DHT22;54366;51.980;5.856;2024-01-30T08:50:34;9.00;85.20
67529;DHT22;54366;51.980;5.856;2024-01-30T08:53:01;9.00;85.10
67529;DHT22;54366;51.980;5.856;2024-01-30T08:55:27;9.00;85.10
67529;DHT22;54366;51.980;5.856;2024-01-30T08:57:53;9.10;85.10
67529;DHT22;54366;51.980;5.856;2024-01-30T09:00:20;9.10;85.00
67529;DHT22;54366;51.980;5.856;2024-01-30T09:02:46;9.20;85.10
67529;DHT22;54366;51.980;5.856;2024-01-30T09:05:12;9.20;85.10
67529;DHT22;54366;51.980;5.856;2024-01-30T09:07:38;9.20;85.00
67529;DHT22;54366;51.980;5.856;2024-01-30T09:10:06;9.20;85.30
67529;DHT22;54366;51.980;5.856;2024-01-30T09:12:32;9.30;85.50
67529;DHT22;54366;51.980;5.856;2024-01-30T09:14:59;9.30;85.40
67529;DHT22;54366;51.980;5.856;2024-01-30T09:17:25;9.40;85.30
67529;DHT22;54366;51.980;5.856;2024-01-30T09:19:52;9.40;85.20
67529;DHT22;54366;51.980;5.856;2024-01-30T09:22:18;9.40;85.20
67529;DHT22;54366;51.980;5.856;2024-01-30T09:24:44;9.50;85.30
67529;DHT22;54366;51.980;5.856;2024-01-30T09:27:11;9.50;85.30
67529;DHT22;54366;51.980;5.856;2024-01-30T09:29:37;9.50;85.30
67529;DHT22;54366;51.980;5.856;2024-01-30T09:32:04;9.50;85.20
67529;DHT22;54366;51.980;5.856;2024-01-30T09:34:32;9.60;85.20
67529;DHT22;54366;51.980;5.856;2024-01-30T09:36:59;9.60;85.20
67529;DHT22;54366;51.980;5.856;2024-01-30T09:39:26;9.70;85.30
67529;DHT22;54366;51.980;5.856;2024-01-30T09:42:26;9.70;85.20
67529;DHT22;54366;51.980;5.856;2024-01-30T09:44:53;9.80;85.30
67529;DHT22;54366;51.980;5.856;2024-01-30T09:47:19;9.80;85.40
67529;DHT22;54366;51.980;5.856;2024-01-30T09:49:46;9.80;85.40
67529;DHT22;54366;51.980;5.856;2024-01-30T09:52:12;9.80;85.30
67529;DHT22;54366;51.980;5.856;2024-01-30T09:54:39;9.90;85.40
67529;DHT22;54366;51.980;5.856;2024-01-30T09:57:06;9.90;85.30
67529;DHT22;54366;51.980;5.856;2024-01-30T09:59:33;9.90;85.40
67529;DHT22;54366;51.980;5.856;2024-01-30T10:02:00;9.90;85.50
67529;DHT22;54366;51.980;5.856;2024-01-30T10:04:26;10.00;85.60
67529;DHT22;54366;51.980;5.856;2024-01-30T10:06:53;10.00;85.80
67529;DHT22;54366;51.980;5.856;2024-01-30T10:09:19;10.10;85.80
67529;DHT22;54366;51.980;5.856;2024-01-30T10:11:45;10.10;85.80
67529;DHT22;54366;51.980;5.856;2024-01-30T10:14:11;10.20;85.90
67529;DHT22;54366;51.980;5.856;2024-01-30T10:16:38;10.20;85.80
67529;DHT22;54366;51.980;5.856;2024-01-30T10:19:04;10.20;86.10
67529;DHT22;54366;51.980;5.856;2024-01-30T10:21:30;10.30;86.10
67529;DHT22;54366;51.980;5.856;2024-01-30T10:23:57;10.30;85.90
67529;DHT22;54366;51.980;5.856;2024-01-30T10:26:23;10.40;85.80
67529;DHT22;54366;51.980;5.856;2024-01-30T10:28:51;10.40;85.80
67529;DHT22;54366;51.980;5.856;2024-01-30T10:31:18;10.40;85.70
67529;DHT22;54366;51.980;5.856;2024-01-30T10:33:47;10.40;85.70
67529;DHT22;54366;51.980;5.856;2024-01-30T10:36:14;10.50;86.00
67529;DHT22;54366;51.980;5.856;2024-01-30T10:38:43;10.50;86.30
67529;DHT22;54366;51.980;5.856;2024-01-30T10:41:13;10.50;86.30
67529;DHT22;54366;51.980;5.856;2024-01-30T10:43:41;10.60;86.50
67529;DHT22;54366;51.980;5.856;2024-01-30T10:46:17;10.60;86.80
67529;DHT22;54366;51.980;5.856;2024-01-30T10:48:58;10.70;86.80
67529;DHT22;54366;51.980;5.856;2024-01-30T10:51:26;10.70;86.70
67529;DHT22;54366;51.980;5.856;2024-01-30T10:53:53;10.80;86.70
67529;DHT22;54366;51.980;5.856;2024-01-30T10:56:21;10.80;86.60
67529;DHT22;54366;51.980;5.856;2024-01-30T10:58:50;10.90;86.70
67529;DHT22;54366;51.980;5.856;2024-01-30T11:01:18;10.90;86.60
67529;DHT22;54366;51.980;5.856;2024-01-30T11:03:46;11.00;86.40
67529;DHT22;54366;51.980;5.856;2024-01-30T11:06:12;11.00;86.30
67529;DHT22;54366;51.980;5.856;2024-01-30T11:08:45;11.10;86.20
67529;DHT22;54366;51.980;5.856;2024-01-30T11:11:11;11.10;86.10
67529;DHT22;54366;51.980;5.856;2024-01-30T11:13:38;11.10;86.30
67529;DHT22;54366;51.980;5.856;2024-01-30T11:16:05;11.20;86.40
67529;DHT22;54366;51.980;5.856;2024-01-30T11:18:32;11.20;86.30
67529;DHT22;54366;51.980;5.856;2024-01-30T11:20:59;11.30;86.20
67529;DHT22;54366;51.980;5.856;2024-01-30T11:23:32;11.40;86.30
67529;DHT22;54366;51.980;5.856;2024-01-30T11:25:59;11.50;86.10
67529;DHT22;54366;51.980;5.856;2024-01-30T11:28:32;11.60;86.10
67529;DHT22;54366;51.980;5.856;2024-01-30T11:31:06;11.70;86.00
67529;DHT22;54366;51.980;5.856;2024-01-30T11:33:37;11.70;86.40
67529;DHT22;54366;51.980;5.856;2024-01-30T11:36:04;11.70;85.70
67529;DHT22;54366;51.980;5.856;2024-01-30T11:38:33;11.70;85.60
67529;DHT22;54366;51.980;5.856;2024-01-30T11:41:00;11.70;85.60
67529;DHT22;54366;51.980;5.856;2024-01-30T11:43:26;11.70;85.30
67529;DHT22;54366;51.980;5.856;2024-01-30T11:45:53;11.70;85.40
67529;DHT22;54366;51.980;5.856;2024-01-30T11:48:19;11.80;85.30
67529;DHT22;54366;51.980;5.856;2024-01-30T11:50:46;11.80;85.20
67529;DHT22;54366;51.980;5.856;2024-01-30T11:53:12;11.80;85.10
67529;DHT22;54366;51.980;5.856;2024-01-30T11:55:39;11.90;85.40
67529;DHT22;54366;51.980;5.856;2024-01-30T11:58:05;12.00;84.80
67529;DHT22;54366;51.980;5.856;2024-01-30T12:00:32;12.00;84.70
67529;DHT22;54366;51.980;5.856;2024-01-30T12:02:59;12.10;84.40
67529;DHT22;54366;51.980;5.856;2024-01-30T12:05:27;12.10;84.10
67529;DHT22;54366;51.980;5.856;2024-01-30T12:07:53;12.10;83.60
67529;DHT22;54366;51.980;5.856;2024-01-30T12:10:21;12.20;83.60
67529;DHT22;54366;51.980;5.856;2024-01-30T12:12:49;12.20;83.80
67529;DHT22;54366;51.980;5.856;2024-01-30T12:15:16;12.20;83.50
67529;DHT22;54366;51.980;5.856;2024-01-30T12:17:43;12.10;83.40
67529;DHT22;54366;51.980;5.856;2024-01-30T12:20:15;12.20;83.10
67529;DHT22;54366;51.980;5.856;2024-01-30T12:22:44;12.20;83.00
67529;DHT22;54366;51.980;5.856;2024-01-30T12:25:12;12.30;83.00
67529;DHT22;54366;51.980;5.856;2024-01-30T12:27:40;12.30;82.50
67529;DHT22;54366;51.980;5.856;2024-01-30T12:30:09;12.50;82.20
67529;DHT22;54366;51.980;5.856;2024-01-30T12:32:36;12.60;81.30
67529;DHT22;54366;51.980;5.856;2024-01-30T12:35:03;12.60;79.90
67529;DHT22;54366;51.980;5.856;2024-01-30T12:37:32;12.60;79.50
67529;DHT22;54366;51.980;5.856;2024-01-30T12:39:58;12.60;79.40
67529;DHT22;54366;51.980;5.856;2024-01-30T12:42:27;12.60;78.70
67529;DHT22;54366;51.980;5.856;2024-01-30T12:44:53;12.50;78.60
67529;DHT22;54366;51.980;5.856;2024-01-30T12:47:22;12.40;78.90
67529;DHT22;54366;51.980;5.856;2024-01-30T12:49:49;12.40;78.40
67529;DHT22;54366;51.980;5.856;2024-01-30T12:52:18;12.40;77.90
67529;DHT22;54366;51.980;5.856;2024-01-30T12:54:45;12.30;78.30
67529;DHT22;54366;51.980;5.856;2024-01-30T12:57:11;12.20;78.30
67529;DHT22;54366;51.980;5.856;2024-01-30T12:59:38;12.20;78.20
67529;DHT22;54366;51.980;5.856;2024-01-30T13:02:05;12.10;78.10
67529;DHT22;54366;51.980;5.856;2024-01-30T13:04:33;12.10;78.40
67529;DHT22;54366;51.980;5.856;2024-01-30T13:06:59;12.00;77.70
67529;DHT22;54366;51.980;5.856;2024-01-30T13:09:27;12.10;78.20
67529;DHT22;54366;51.980;5.856;2024-01-30T13:11:53;12.00;78.50
67529;DHT22;54366;51.980;5.856;2024-01-30T13:14:19;12.00;78.20
67529;DHT22;54366;51.980;5.856;2024-01-30T13:16:46;12.10;77.60
67529;DHT22;54366;51.980;5.856;2024-01-30T13:19:12;12.10;77.50
67529;DHT22;54366;51.980;5.856;2024-01-30T13:21:38;12.10;77.60
67529;DHT22;54366;51.980;5.856;2024-01-30T13:24:05;12.10;77.30
67529;DHT22;54366;51.980;5.856;2024-01-30T13:26:32;12.10;76.20
67529;DHT22;54366;51.980;5.856;2024-01-30T13:28:59;12.00;75.90
67529;DHT22;54366;51.980;5.856;2024-01-30T13:31:25;12.10;76.20
67529;DHT22;54366;51.980;5.856;2024-01-30T13:33:54;12.00;75.40
67529;DHT22;54366;51.980;5.856;2024-01-30T13:36:21;12.00;74.00
67529;DHT22;54366;51.980;5.856;2024-01-30T13:38:48;12.00;73.30
67529;DHT22;54366;51.980;5.856;2024-01-30T13:41:14;11.90;73.80
67529;DHT22;54366;51.980;5.856;2024-01-30T13:43:41;11.90;73.60
67529;DHT22;54366;51.980;5.856;2024-01-30T13:46:07;11.80;74.10
67529;DHT22;54366;51.980;5.856;2024-01-30T13:48:33;11.70;74.90
67529;DHT22;54366;51.980;5.856;2024-01-30T13:50:59;11.60;75.40
67529;DHT22;54366;51.980;5.856;2024-01-30T13:53:26;11.60;75.90
67529;DHT22;54366;51.980;5.856;2024-01-30T13:55:53;11.50;76.40
67529;DHT22;54366;51.980;5.856;2024-01-30T13:58:19;11.50;76.80
67529;DHT22;54366;51.980;5.856;2024-01-30T14:00:46;11.40;76.80
67529;DHT22;54366;51.980;5.856;2024-01-30T14:03:12;11.40;77.00
67529;DHT22;54366;51.980;5.856;2024-01-30T14:05:39;11.30;77.20
67529;DHT22;54366;51.980;5.856;2024-01-30T14:08:06;11.20;77.50
67529;DHT22;54366;51.980;5.856;2024-01-30T14:10:34;11.20;77.70
67529;DHT22;54366;51.980;5.856;2024-01-30T14:13:01;11.20;77.90
67529;DHT22;54366;51.980;5.856;2024-01-30T14:15:27;11.20;78.00
67529;DHT22;54366;51.980;5.856;2024-01-30T14:17:53;11.10;78.00
67529;DHT22;54366;51.980;5.856;2024-01-30T14:20:20;11.10;78.10
67529;DHT22;54366;51.980;5.856;2024-01-30T14:22:46;11.10;78.30
67529;DHT22;54366;51.980;5.856;2024-01-30T14:25:12;11.10;78.40
67529;DHT22;54366;51.980;5.856;2024-01-30T14:27:39;11.00;78.40
67529;DHT22;54366;51.980;5.856;2024-01-30T14:30:06;11.00;78.40
67529;DHT22;54366;51.980;5.856;2024-01-30T14:32:36;11.10;78.40
67529;DHT22;54366;51.980;5.856;2024-01-30T14:35:05;11.00;78.40
67529;DHT22;54366;51.980;5.856;2024-01-30T14:37:31;11.00;78.20
67529;DHT22;54366;51.980;5.856;2024-01-30T14:39:57;10.90;78.50
67529;DHT22;54366;51.980;5.856;2024-01-30T14:42:24;10.90;78.50
67529;DHT22;54366;51.980;5.856;2024-01-30T14:44:50;11.00;78.70
67529;DHT22;54366;51.980;5.856;2024-01-30T14:47:17;10.90;78.70
67529;DHT22;54366;51.980;5.856;2024-01-30T14:49:43;11.00;78.70
67529;DHT22;54366;51.980;5.856;2024-01-30T14:52:09;11.00;78.60
67529;DHT22;54366;51.980;5.856;2024-01-30T14:54:36;10.90;78.70
67529;DHT22;54366;51.980;5.856;2024-01-30T14:57:03;10.90;78.40
67529;DHT22;54366;51.980;5.856;2024-01-30T14:59:30;10.90;78.60
67529;DHT22;54366;51.980;5.856;2024-01-30T15:01:56;10.90;78.70
67529;DHT22;54366;51.980;5.856;2024-01-30T15:04:22;10.80;78.90
67529;DHT22;54366;51.980;5.856;2024-01-30T15:06:49;10.80;79.80
67529;DHT22;54366;51.980;5.856;2024-01-30T15:09:15;10.80;79.30
67529;DHT22;54366;51.980;5.856;2024-01-30T15:11:44;10.80;79.50
67529;DHT22;54366;51.980;5.856;2024-01-30T15:14:10;10.80;79.50
67529;DHT22;54366;51.980;5.856;2024-01-30T15:16:36;10.70;79.50
67529;DHT22;54366;51.980;5.856;2024-01-30T15:19:03;10.70;79.70
67529;DHT22;54366;51.980;5.856;2024-01-30T15:21:33;10.70;79.80
67529;DHT22;54366;51.980;5.856;2024-01-30T15:23:59;10.60;79.80
67529;DHT22;54366;51.980;5.856;2024-01-30T15:26:26;10.60;79.90
67529;DHT22;54366;51.980;5.856;2024-01-30T15:28:52;10.60;80.10
67529;DHT22;54366;51.980;5.856;2024-01-30T15:31:18;10.60;80.20
67529;DHT22;54366;51.980;5.856;2024-01-30T15:33:45;10.50;80.20
67529;DHT22;54366;51.980;5.856;2024-01-30T15:36:11;10.50;80.30
67529;DHT22;54366;51.980;5.856;2024-01-30T15:38:41;10.50;80.40